MA70 weather

Sudbury Airport
Sudbury, Massachusetts, United States

Public forecast

Using degrees Fahrenheit for public forecast. Weather courtesy of forecast.io.

METAR (pilot weather report)

Closest report is Laurence G Hanscom Field, 9.5 nm (17.6 km) NE. Retrieved 2019/09/17 06:51 UTC (27 minutes ago):

KBED 170651Z AUTO 25003KT 10SM CLR 10/07 A3007 RMK AO2 SLP196 T01000072

TAF (pilot weather forecast)

Closest forecast is Laurence G Hanscom Field, 9.5 nm (17.6 km) NE. Retrieved 2019/09/17 06:34 UTC (44 minutes ago):

TAF KBED 170532Z 1706/1806 VRB03KT P6SM SKC FM171300 36006KT P6SM FEW250 FM171700 01006KT P6SM SCT090 FM172000 06005KT P6SM SCT050 FM180300 00000KT P6SM SCT045